TimeMST,TemperatureF,Dew PointF,Humidity,Sea Level PressureIn,VisibilityMPH,Wind Direction,Wind SpeedMPH,Gust SpeedMPH,PrecipitationIn,Events,Conditions,WindDirDegrees,DateUTC
12:43 AM,10.4,8.6,92,29.86,6.0,SE,12.7,-,N/A,,Scattered Clouds,140,2012-12-23 07:43:00
12:52 AM,10.0,8.1,92,29.99,6.0,SE,11.5,-,N/A,,Mostly Cloudy,130,2012-12-23 07:52:00
1:26 AM,10.4,8.6,92,29.85,2.5,SE,13.8,-,N/A,,Overcast,130,2012-12-23 08:26:00
1:52 AM,12.0,10.0,92,29.98,1.5,SE,13.8,-,N/A,,Overcast,130,2012-12-23 08:52:00
2:39 AM,12.2,10.4,92,29.83,0.8,SSE,10.4,-,N/A,,Mist,150,2012-12-23 09:39:00
2:52 AM,12.0,10.0,92,29.97,0.8,SSE,9.2,-,N/A,,Mist,150,2012-12-23 09:52:00
3:00 AM,12.2,10.4,92,29.82,1.2,SSE,10.4,-,N/A,,Overcast,160,2012-12-23 10:00:00
3:52 AM,12.9,10.0,88,29.95,0.8,SSE,10.4,-,N/A,,Mist,150,2012-12-23 10:52:00
4:29 AM,12.2,10.4,92,29.80,1.2,South,9.2,-,N/A,,Overcast,170,2012-12-23 11:29:00
4:40 AM,12.2,10.4,92,29.79,0.8,SSE,6.9,-,N/A,,Mist,160,2012-12-23 11:40:00
4:52 AM,12.9,10.9,92,29.96,0.8,SE,4.6,-,N/A,,Mist,140,2012-12-23 11:52:00
5:52 AM,14.0,10.9,88,29.98,0.8,NNE,6.9,-,N/A,,Mist,20,2012-12-23 12:52:00
6:31 AM,14.0,10.4,86,29.81,1.2,North,5.8,-,N/A,,Overcast,10,2012-12-23 13:31:00
6:45 AM,14.0,10.4,86,29.82,2.5,North,6.9,-,N/A,,Overcast,360,2012-12-23 13:45:00
6:52 AM,14.0,10.9,88,29.99,1.5,North,9.2,-,N/A,,Overcast,360,2012-12-23 13:52:00
7:10 AM,12.2,8.6,85,29.83,3.0,NNE,11.5,-,N/A,,Overcast,20,2012-12-23 14:10:00
7:52 AM,9.0,6.1,88,30.04,2.5,North,15.0,-,0.00,Snow,Light Snow,360,2012-12-23 14:52:00
8:05 AM,10.4,6.8,85,29.86,1.5,North,12.7,-,0.00,Snow,Light Snow,360,2012-12-23 15:05:00
8:52 AM,10.9,7.0,84,30.04,1.2,North,10.4,-,0.00,Snow,Light Snow,360,2012-12-23 15:52:00
9:04 AM,10.4,6.8,85,29.87,1.2,North,12.7,-,0.00,Snow,Light Snow,360,2012-12-23 16:04:00
9:52 AM,12.9,8.1,81,30.08,2.0,North,13.8,21.9,0.00,Snow,Light Snow,350,2012-12-23 16:52:00
10:00 AM,12.2,8.6,85,29.90,1.8,North,17.3,23.0,N/A,Snow,Light Snow,350,2012-12-23 17:00:00
10:38 AM,14.0,8.6,79,29.92,2.5,North,19.6,24.2,0.00,Snow,Light Snow,350,2012-12-23 17:38:00
10:52 AM,14.0,9.0,80,30.11,4.0,NNW,19.6,24.2,0.00,Snow,Light Snow,340,2012-12-23 17:52:00
11:52 AM,16.0,10.9,81,30.11,7.0,NNW,12.7,-,0.00,,Overcast,340,2012-12-23 18:52:00
12:22 PM,15.8,10.4,79,29.93,9.0,NNW,13.8,-,N/A,,Overcast,340,2012-12-23 19:22:00
12:52 PM,15.1,10.9,84,30.10,10.0,NNW,16.1,-,N/A,,Mostly Cloudy,340,2012-12-23 19:52:00
1:52 PM,21.0,12.9,71,30.08,10.0,NNW,10.4,-,N/A,,Scattered Clouds,340,2012-12-23 20:52:00
2:52 PM,19.0,12.0,74,30.10,10.0,North,9.2,-,N/A,,Partly Cloudy,10,2012-12-23 21:52:00
3:52 PM,18.0,10.9,74,30.12,10.0,North,4.6,-,N/A,,Clear,350,2012-12-23 22:52:00
4:52 PM,10.0,7.0,87,30.14,10.0,North,3.5,-,N/A,,Clear,10,2012-12-23 23:52:00
5:52 PM,9.0,6.1,88,30.14,9.0,West,3.5,-,N/A,,Clear,280,2012-12-24 00:52:00
6:52 PM,8.1,5.0,87,30.15,9.0,Calm,Calm,-,N/A,,Clear,0,2012-12-24 01:52:00
7:52 PM,6.1,3.0,87,30.17,8.0,Calm,Calm,-,N/A,,Clear,0,2012-12-24 02:52:00
8:52 PM,6.1,3.0,87,30.18,9.0,Calm,Calm,-,N/A,,Clear,0,2012-12-24 03:52:00
9:52 PM,9.0,6.1,88,30.16,10.0,NNW,6.9,-,N/A,,Clear,340,2012-12-24 04:52:00
10:52 PM,9.0,5.0,84,30.17,10.0,NNW,9.2,-,N/A,,Clear,330,2012-12-24 05:52:00
11:34 PM,8.6,3.2,79,29.99,10.0,NNE,5.8,-,N/A,,Mostly Cloudy,20,2012-12-24 06:34:00
11:52 PM,10.9,7.0,84,30.17,10.0,NNE,8.1,-,N/A,,Overcast,20,2012-12-24 06:52:00